Time;durP1;ratioP1;P1;durP2;ratioP2;P2;SDS_P1;SDS_P2;PMS_P1;PMS_P2;Temp;Humidity;BMP_temperature;BMP_pressure;BME280_temperature;BME280_humidity;BME280_pressure;Samples;Min_cycle;Max_cycle;Signal;HPM_P1;HPM_P2
2023/03/08 00:01:02;;;;;;;5.33;4.50;;;-0.90;1.00;;;;;;4960435;28;21150;-77
2023/03/08 00:03:28;;;;;;;4.93;4.43;;;-1.00;1.00;;;;;;4960194;28;20657;-77
2023/03/08 00:05:53;;;;;;;6.87;4.80;;;-1.00;56.00;;;;;;4958129;28;20213;-79
2023/03/08 00:08:19;;;;;;;6.57;4.80;;;-1.10;99.90;;;;;;4961245;28;20227;-78
2023/03/08 00:10:45;;;;;;;5.37;4.57;;;-1.10;1.00;;;;;;4971900;28;20652;-78
2023/03/08 00:13:11;;;;;;;6.20;4.70;;;-1.20;1.00;;;;;;4965556;28;20217;-77
2023/03/08 00:15:38;;;;;;;6.77;4.47;;;-1.20;2.40;;;;;;4981326;28;20220;-77
2023/03/08 00:18:05;;;;;;;7.33;5.80;;;-1.20;99.90;;;;;;4965225;28;20221;-76
2023/03/08 00:20:31;;;;;;;7.30;5.70;;;-1.20;1.00;;;;;;4965214;28;20216;-76
2023/03/08 00:22:56;;;;;;;6.40;5.40;;;-1.20;99.90;;;;;;4978934;28;20846;-77
2023/03/08 00:25:22;;;;;;;10.33;6.13;;;-1.90;1.00;;;;;;4964007;28;20240;-79
2023/03/08 00:27:47;;;;;;;6.97;6.27;;;-1.10;1.00;;;;;;4963997;28;20189;-78
2023/03/08 00:30:14;;;;;;;8.63;6.07;;;-1.00;99.90;;;;;;4963436;28;20197;-76
2023/03/08 00:32:40;;;;;;;9.67;6.27;;;-1.00;1.00;;;;;;4966267;28;20688;-80
2023/03/08 00:35:06;;;;;;;8.77;6.63;;;-0.90;1.00;;;;;;4963774;28;20252;-80
2023/03/08 00:37:32;;;;;;;9.03;6.57;;;-0.80;1.00;;;;;;4965722;28;20541;-78
2023/03/08 00:39:58;;;;;;;9.47;7.50;;;-0.70;99.90;;;;;;4963627;28;20195;-78
2023/03/08 00:42:24;;;;;;;10.13;7.03;;;-0.70;99.90;;;;;;4966392;28;20198;-78
2023/03/08 00:44:49;;;;;;;9.10;7.60;;;-0.70;99.90;;;;;;4963201;28;20767;-77
2023/03/08 00:47:16;;;;;;;10.77;7.23;;;-0.40;99.90;;;;;;4963614;28;20200;-76
2023/03/08 00:49:42;;;;;;;10.23;7.57;;;-0.50;1.00;;;;;;4966536;28;20193;-78
2023/03/08 00:52:08;;;;;;;10.43;7.47;;;-0.40;1.00;;;;;;4964554;28;20197;-78
2023/03/08 00:54:33;;;;;;;9.93;7.83;;;-0.40;99.90;;;;;;4980001;28;20285;-80
2023/03/08 00:56:59;;;;;;;13.77;8.17;;;-0.30;99.90;;;;;;4961049;28;20192;-79
2023/03/08 00:59:24;;;;;;;10.93;7.97;;;-0.30;11.40;;;;;;4964092;28;20278;-78
2023/03/08 01:01:50;;;;;;;9.87;7.80;;;-0.20;1.00;;;;;;4963922;28;20184;-77
2023/03/08 01:04:16;;;;;;;10.27;7.00;;;-0.20;99.90;;;;;;4971347;28;20301;-78
2023/03/08 01:06:42;;;;;;;10.30;8.33;;;-0.10;1.00;;;;;;4966431;28;20236;-77
2023/03/08 01:09:09;;;;;;;11.10;7.70;;;-0.10;1.00;;;;;;4977665;28;20197;-79
2023/03/08 01:11:36;;;;;;;10.67;7.43;;;-0.10;99.90;;;;;;4962881;28;20220;-79
2023/03/08 01:14:02;;;;;;;13.97;8.53;;;-0.10;29.10;;;;;;4962087;28;20220;-77
2023/03/08 01:16:30;;;;;;;9.83;7.50;;;0.00;1.00;;;;;;4969190;28;20260;-79
2023/03/08 01:18:56;;;;;;;9.40;7.93;;;-0.10;99.90;;;;;;4965469;28;20645;-80
2023/03/08 01:21:23;;;;;;;8.60;7.40;;;-0.10;1.00;;;;;;4963004;28;20708;-77
2023/03/08 01:23:49;;;;;;;9.87;7.20;;;0.00;1.00;;;;;;4963201;28;20189;-76
2023/03/08 01:26:20;;;;;;;9.03;7.93;;;0.00;1.00;;;;;;4963322;28;20204;-79
2023/03/08 01:28:46;;;;;;;10.80;7.60;;;0.00;99.90;;;;;;4968090;28;20661;-80
2023/03/08 01:31:23;;;;;;;8.53;7.63;;;0.00;99.90;;;;;;4963689;28;20243;-77
2023/03/08 01:33:50;;;;;;;11.97;7.73;;;0.10;1.00;;;;;;4961744;28;20251;-77
2023/03/08 01:36:18;;;;;;;9.67;7.10;;;0.10;99.90;;;;;;4963479;28;20200;-78
2023/03/08 01:38:44;;;;;;;9.80;7.30;;;0.10;1.00;;;;;;4962034;28;20194;-76
2023/03/08 01:41:22;;;;;;;7.90;7.10;;;0.10;1.00;;;;;;4979126;28;20189;-75
2023/03/08 01:43:48;;;;;;;12.27;7.50;;;0.10;1.00;;;;;;4975820;28;20189;-76
2023/03/08 01:46:26;;;;;;;7.43;6.70;;;0.10;99.90;;;;;;4973539;28;20213;-76
2023/03/08 01:49:00;;;;;;;8.33;6.70;;;0.10;99.90;;;;;;4973804;28;20200;-76
2023/03/08 01:51:50;;;;;;;7.93;6.80;;;0.10;99.90;;;;;;4970524;28;20679;-79
2023/03/08 01:54:26;;;;;;;7.10;6.40;;;0.10;99.90;;;;;;4969954;28;20221;-78
2023/03/08 01:56:57;;;;;;;8.07;6.80;;;0.00;99.90;;;;;;4971684;28;20196;-78
2023/03/08 01:59:23;;;;;;;8.23;7.00;;;0.10;99.90;;;;;;4971554;28;20209;-79
2023/03/08 02:01:48;;;;;;;8.43;7.10;;;0.00;99.90;;;;;;4971878;28;20190;-79
2023/03/08 02:04:14;;;;;;;7.83;7.03;;;0.00;99.90;;;;;;4969445;28;20209;-78
2023/03/08 02:06:41;;;;;;;9.03;6.83;;;0.00;99.90;;;;;;4970288;28;20189;-78
2023/03/08 02:09:07;;;;;;;7.33;6.20;;;0.00;99.90;;;;;;4966849;28;20204;-78
2023/03/08 02:11:34;;;;;;;8.60;6.70;;;0.00;99.90;;;;;;4963518;28;20568;-78
2023/03/08 02:14:00;;;;;;;11.13;7.73;;;-0.10;99.90;;;;;;4961850;28;20587;-79
2023/03/08 02:16:25;;;;;;;9.07;7.43;;;0.00;99.90;;;;;;4960966;28;20186;-79
2023/03/08 02:18:58;;;;;;;8.73;7.13;;;0.00;1.00;;;;;;4967867;28;20215;-78
2023/03/08 02:21:25;;;;;;;8.00;7.17;;;0.00;1.00;;;;;;4960238;28;20261;-79
2023/03/08 02:23:50;;;;;;;8.13;7.13;;;0.10;99.90;;;;;;4966560;28;20222;-79
2023/03/08 02:26:16;;;;;;;12.57;8.83;;;0.10;1.00;;;;;;4975089;28;20248;-78
2023/03/08 02:28:42;;;;;;;9.23;7.63;;;0.10;1.00;;;;;;4959276;28;20189;-79
2023/03/08 02:31:09;;;;;;;9.63;7.47;;;0.20;99.90;;;;;;4966743;28;20196;-79
2023/03/08 02:33:35;;;;;;;8.90;7.03;;;0.20;1.00;;;;;;4973908;28;20574;-79
2023/03/08 02:36:02;;;;;;;8.40;6.63;;;0.20;1.00;;;;;;4960299;28;20224;-79
2023/03/08 02:38:28;;;;;;;8.37;6.93;;;0.10;99.90;;;;;;4960410;28;20189;-78
2023/03/08 02:40:54;;;;;;;7.00;6.30;;;0.10;99.90;;;;;;4957503;28;20184;-79
2023/03/08 02:43:20;;;;;;;8.87;6.77;;;0.10;99.90;;;;;;4965839;28;20193;-79
2023/03/08 02:45:46;;;;;;;8.77;7.17;;;0.10;99.90;;;;;;4960401;28;20210;-78
2023/03/08 02:48:11;;;;;;;9.27;7.47;;;0.10;99.90;;;;;;4959169;28;20224;-79
2023/03/08 02:50:37;;;;;;;8.37;7.30;;;0.10;99.90;;;;;;4961488;28;20194;-79
2023/03/08 02:53:04;;;;;;;9.37;6.90;;;0.10;99.90;;;;;;4958548;28;20216;-79
2023/03/08 02:55:29;;;;;;;10.23;7.13;;;0.10;1.00;;;;;;4965540;28;20217;-78
2023/03/08 02:57:55;;;;;;;10.07;7.47;;;0.10;1.00;;;;;;4960734;28;20222;-79
2023/03/08 03:00:21;;;;;;;8.90;6.93;;;0.10;1.00;;;;;;4967685;28;20205;-77
2023/03/08 03:02:47;;;;;;;8.97;7.43;;;0.30;1.00;;;;;;4973591;28;20184;-79
2023/03/08 03:05:13;;;;;;;8.30;7.37;;;0.10;1.00;;;;;;4965268;28;20218;-78
2023/03/08 03:07:40;;;;;;;8.03;6.90;;;0.10;9.00;;;;;;4959990;28;20195;-78
2023/03/08 03:10:07;;;;;;;8.07;7.10;;;0.10;15.10;;;;;;4957581;28;20224;-77
2023/03/08 03:12:33;;;;;;;8.90;7.40;;;0.10;7.00;;;;;;4959098;28;20184;-78
2023/03/08 03:15:01;;;;;;;10.40;7.97;;;0.10;1.00;;;;;;4960576;28;20239;-79
2023/03/08 03:17:27;;;;;;;8.73;6.93;;;0.10;1.00;;;;;;4958988;28;20284;-78
2023/03/08 03:19:52;;;;;;;8.50;7.50;;;0.00;1.00;;;;;;4960316;28;20337;-79
2023/03/08 03:22:18;;;;;;;8.63;7.13;;;0.00;1.00;;;;;;4958518;28;20214;-79
2023/03/08 03:24:43;;;;;;;8.63;7.70;;;0.00;99.90;;;;;;4958788;28;20225;-79
2023/03/08 03:27:09;;;;;;;7.53;6.70;;;0.00;99.90;;;;;;4959726;28;20215;-78
2023/03/08 03:29:37;;;;;;;7.37;6.57;;;0.00;99.90;;;;;;4958983;28;20196;-78
2023/03/08 03:32:02;;;;;;;8.90;7.23;;;0.00;99.90;;;;;;4960691;28;20194;-78
2023/03/08 03:34:28;;;;;;;9.20;7.97;;;0.00;1.00;;;;;;4964597;28;20231;-79
2023/03/08 03:36:54;;;;;;;9.03;7.47;;;-0.10;1.00;;;;;;4960516;28;20276;-79
2023/03/08 03:39:20;;;;;;;9.27;7.40;;;-0.10;1.00;;;;;;4966972;28;20683;-78
2023/03/08 03:41:45;;;;;;;9.03;7.63;;;-0.10;1.00;;;;;;4963083;28;20204;-77
2023/03/08 03:44:11;;;;;;;9.63;7.83;;;-0.10;99.90;;;;;;4961948;28;20249;-79
2023/03/08 03:46:37;;;;;;;8.83;7.93;;;-0.20;99.90;;;;;;4962493;28;20650;-79
2023/03/08 03:49:02;;;;;;;10.53;8.20;;;-0.20;1.00;;;;;;4976838;28;20657;-79
2023/03/08 03:51:28;;;;;;;8.73;7.47;;;-0.20;1.00;;;;;;4964600;28;20200;-79
2023/03/08 03:53:53;;;;;;;9.40;7.77;;;-0.30;1.00;;;;;;4963640;28;20822;-78
2023/03/08 03:56:21;;;;;;;8.23;7.17;;;-0.40;1.00;;;;;;4968654;28;20292;-79
2023/03/08 03:58:47;;;;;;;10.07;7.40;;;-0.40;1.00;;;;;;4962734;28;20231;-78
2023/03/08 04:01:24;;;;;;;10.83;8.17;;;-0.40;1.00;;;;;;4965591;28;20209;-78
2023/03/08 04:03:50;;;;;;;8.17;7.00;;;-0.50;1.00;;;;;;4962874;28;20192;-78
2023/03/08 04:06:22;;;;;;;10.87;8.10;;;-0.50;1.00;;;;;;4968801;28;20184;-78
2023/03/08 04:08:51;;;;;;;10.27;7.97;;;-0.50;99.90;;;;;;4963484;28;20300;-78
2023/03/08 04:11:19;;;;;;;11.30;7.73;;;-0.50;99.90;;;;;;4961959;28;20240;-78
2023/03/08 04:13:47;;;;;;;10.40;7.80;;;-0.50;99.90;;;;;;4961188;28;20244;-78
2023/03/08 04:16:19;;;;;;;8.93;7.70;;;-0.50;99.90;;;;;;4960638;28;20813;-78
2023/03/08 04:18:44;;;;;;;8.07;6.70;;;-0.50;99.90;;;;;;4968689;28;20185;-78
2023/03/08 04:21:10;;;;;;;10.70;9.53;;;-0.50;99.90;;;;;;4963808;28;20480;-80
2023/03/08 04:23:37;;;;;;;9.67;8.60;;;-0.50;99.90;;;;;;4965523;28;20193;-78
2023/03/08 04:26:03;;;;;;;10.47;8.30;;;-0.60;99.90;;;;;;4970684;28;20231;-77
2023/03/08 04:28:29;;;;;;;11.07;8.10;;;-0.60;99.90;;;;;;4965004;28;20195;-79
2023/03/08 04:30:55;;;;;;;8.90;7.03;;;-0.70;53.70;;;;;;4970925;28;20227;-79
2023/03/08 04:33:22;;;;;;;9.13;6.83;;;-0.70;49.30;;;;;;4959508;28;20239;-79
2023/03/08 04:35:48;;;;;;;12.83;7.83;;;-0.80;22.60;;;;;;4976497;28;20205;-77
2023/03/08 04:38:13;;;;;;;11.02;9.00;;;-0.80;99.90;;;;;;4977121;28;20479;-78
2023/03/08 04:43:23;;;;;;;12.50;8.77;;;-0.80;99.90;;;;;;4963303;28;20248;-77
2023/03/08 04:45:49;;;;;;;12.83;9.07;;;-0.70;99.90;;;;;;4979228;28;20209;-77
2023/03/08 04:48:14;;;;;;;15.50;9.17;;;-0.60;99.90;;;;;;4964700;28;20289;-77
2023/03/08 04:50:40;;;;;;;12.10;9.17;;;-0.60;92.00;;;;;;4972405;28;20263;-78
2023/03/08 04:53:07;;;;;;;12.70;9.63;;;-0.60;1.00;;;;;;4972110;28;20268;-79
2023/03/08 04:55:33;;;;;;;15.93;9.80;;;-0.60;1.00;;;;;;4965322;28;20227;-77
2023/03/08 04:57:58;;;;;;;12.53;9.20;;;-0.60;99.90;;;;;;4964221;28;20201;-79
2023/03/08 05:00:24;;;;;;;10.00;8.27;;;-0.60;1.00;;;;;;4971156;28;20201;-77
2023/03/08 05:02:49;;;;;;;14.53;10.50;;;-0.60;1.00;;;;;;4973787;28;20559;-79
2023/03/08 05:05:15;;;;;;;13.60;9.97;;;-0.60;1.00;;;;;;4963034;28;20205;-78
2023/03/08 05:07:40;;;;;;;13.50;10.40;;;-0.70;99.90;;;;;;4982535;28;20192;-78
2023/03/08 05:10:06;;;;;;;13.47;9.53;;;-0.70;99.90;;;;;;4968941;28;20657;-79
2023/03/08 05:12:32;;;;;;;16.13;10.60;;;-0.70;99.90;;;;;;4972270;28;20213;-76
2023/03/08 05:14:57;;;;;;;14.13;10.23;;;-0.80;99.90;;;;;;4966283;28;20212;-78
2023/03/08 05:17:23;;;;;;;13.83;9.53;;;-0.90;99.90;;;;;;4967866;28;20225;-78
2023/03/08 05:19:49;;;;;;;14.87;9.77;;;-0.90;99.90;;;;;;4966613;28;20185;-76
2023/03/08 05:22:14;;;;;;;14.30;9.47;;;-1.00;1.00;;;;;;4969174;28;20189;-76
2023/03/08 05:24:40;;;;;;;14.17;9.83;;;-1.10;1.00;;;;;;4965337;28;20209;-76
2023/03/08 05:27:07;;;;;;;16.30;10.30;;;-1.20;1.00;;;;;;4965440;28;20667;-76
2023/03/08 05:29:33;;;;;;;16.73;10.70;;;-1.20;29.20;;;;;;4964755;28;20189;-78
2023/03/08 05:32:01;;;;;;;17.40;11.13;;;-1.20;99.90;;;;;;4963195;28;20201;-76
2023/03/08 05:34:27;;;;;;;15.50;10.77;;;-1.30;99.90;;;;;;4961488;28;20625;-78
2023/03/08 05:36:53;;;;;;;16.40;11.00;;;-1.30;1.00;;;;;;4965265;28;20661;-78
2023/03/08 05:39:18;;;;;;;16.93;11.37;;;-1.40;1.00;;;;;;4962557;28;20193;-78
2023/03/08 05:41:44;;;;;;;16.10;11.03;;;-1.40;1.00;;;;;;4964373;28;20737;-77
2023/03/08 05:44:10;;;;;;;16.10;10.83;;;-1.50;1.00;;;;;;4963445;28;20219;-79
2023/03/08 05:46:38;;;;;;;15.90;10.23;;;-1.50;1.00;;;;;;4969142;28;20292;-78
2023/03/08 05:49:07;;;;;;;17.67;12.30;;;-1.50;1.00;;;;;;4959452;28;20393;-77
2023/03/08 05:51:32;;;;;;;16.17;11.27;;;-1.60;1.00;;;;;;4976323;28;20185;-77
2023/03/08 05:53:58;;;;;;;17.20;11.60;;;-1.60;24.50;;;;;;4960352;28;20208;-77
2023/03/08 05:56:24;;;;;;;18.27;11.63;;;-1.50;99.90;;;;;;4959905;28;20205;-77
2023/03/08 05:58:50;;;;;;;16.50;11.80;;;-1.70;99.90;;;;;;4961012;28;20207;-77
2023/03/08 06:01:21;;;;;;;17.53;11.60;;;-1.70;1.00;;;;;;4960497;28;20185;-77
2023/03/08 06:03:55;;;;;;;16.07;11.17;;;-1.70;1.00;;;;;;4960022;28;20192;-77
2023/03/08 06:06:23;;;;;;;17.57;11.37;;;-1.60;88.80;;;;;;4960010;28;20185;-78
2023/03/08 06:08:50;;;;;;;17.77;11.23;;;-1.70;99.90;;;;;;4973579;28;20284;-77
2023/03/08 06:11:16;;;;;;;18.30;12.47;;;-1.70;1.00;;;;;;4961965;28;20200;-78
2023/03/08 06:13:42;;;;;;;17.60;11.63;;;-1.70;1.00;;;;;;4959064;28;20291;-77
2023/03/08 06:16:08;;;;;;;19.33;12.27;;;-1.70;99.90;;;;;;4957488;28;20333;-77
2023/03/08 06:18:38;;;;;;;20.30;13.00;;;-1.60;99.90;;;;;;4958500;28;20189;-77
2023/03/08 06:21:07;;;;;;;18.37;11.93;;;-1.60;1.00;;;;;;4957372;28;20301;-80
2023/03/08 06:23:34;;;;;;;21.23;12.60;;;-1.60;1.00;;;;;;4958122;28;20192;-78
2023/03/08 06:26:00;;;;;;;21.07;13.47;;;-1.50;99.90;;;;;;4959009;28;20205;-77
2023/03/08 06:28:27;;;;;;;18.60;11.97;;;-1.50;99.90;;;;;;4957904;28;20668;-77
2023/03/08 06:30:53;;;;;;;21.17;12.77;;;-1.40;1.00;;;;;;4959743;28;20184;-78
2023/03/08 06:33:22;;;;;;;18.77;12.67;;;-1.40;1.00;;;;;;4959032;28;20197;-78
2023/03/08 06:36:09;;;;;;;21.13;13.30;;;-1.30;99.90;;;;;;4975077;28;20205;-77
2023/03/08 06:38:37;;;;;;;23.33;14.17;;;-1.10;1.00;;;;;;4960052;28;20189;-78
2023/03/08 06:41:03;;;;;;;23.50;14.10;;;-1.00;2.20;;;;;;4965588;28;20735;-78
2023/03/08 06:43:29;;;;;;;24.67;15.80;;;-1.00;99.90;;;;;;4957865;28;20855;-77
2023/03/08 06:45:55;;;;;;;21.60;14.03;;;-0.80;99.90;;;;;;4960648;28;20886;-77
2023/03/08 06:48:20;;;;;;;20.90;14.47;;;-0.70;99.90;;;;;;4960565;28;20189;-77
2023/03/08 06:50:46;;;;;;;22.03;14.33;;;-0.60;67.10;;;;;;4974476;28;20197;-78
2023/03/08 06:53:12;;;;;;;21.57;14.60;;;-0.50;99.90;;;;;;4960228;28;20193;-77
2023/03/08 06:55:39;;;;;;;22.37;14.60;;;-0.40;1.00;;;;;;4959769;28;20197;-77
2023/03/08 06:58:05;;;;;;;21.77;14.57;;;-0.30;99.90;;;;;;4958877;28;20186;-77
2023/03/08 07:00:32;;;;;;;20.37;13.60;;;-0.30;99.90;;;;;;4958945;28;20276;-78
2023/03/08 07:02:57;;;;;;;20.17;13.63;;;-0.20;1.00;;;;;;4958649;28;20212;-78
2023/03/08 07:05:23;;;;;;;17.53;12.60;;;-0.20;99.90;;;;;;4960488;28;20329;-77
2023/03/08 07:07:49;;;;;;;16.60;11.70;;;-0.10;23.30;;;;;;4965497;28;20652;-77
2023/03/08 07:10:16;;;;;;;17.47;12.70;;;0.00;1.00;;;;;;4958753;28;20213;-78
2023/03/08 07:12:45;;;;;;;19.33;15.00;;;0.10;1.00;;;;;;4966029;28;20193;-76
2023/03/08 07:15:17;;;;;;;18.10;13.40;;;0.10;1.00;;;;;;4960534;28;20220;-78
2023/03/08 07:17:46;;;;;;;20.43;15.20;;;0.30;1.00;;;;;;4964296;28;20184;-77
2023/03/08 07:20:15;;;;;;;19.70;13.83;;;0.30;1.00;;;;;;4966555;28;20193;-77
2023/03/08 07:22:42;;;;;;;15.50;12.27;;;0.40;99.90;;;;;;4963175;28;20182;-78
2023/03/08 07:25:10;;;;;;;18.57;13.70;;;0.40;1.00;;;;;;4966737;28;20234;-78
2023/03/08 07:27:35;;;;;;;18.20;14.43;;;0.50;1.00;;;;;;4964429;28;20197;-77
2023/03/08 07:30:01;;;;;;;15.60;12.60;;;0.60;99.90;;;;;;4980018;28;20188;-78
2023/03/08 07:32:27;;;;;;;17.33;13.67;;;0.60;99.90;;;;;;4963551;28;20276;-78
2023/03/08 07:34:54;;;;;;;14.67;11.83;;;0.60;49.30;;;;;;4983460;28;20647;-78
2023/03/08 07:37:20;;;;;;;15.73;13.10;;;1.10;1.00;;;;;;4964957;28;20189;-78
2023/03/08 07:39:45;;;;;;;15.00;11.73;;;0.80;1.00;;;;;;4963327;28;20186;-77
2023/03/08 07:42:11;;;;;;;14.90;11.97;;;0.80;99.90;;;;;;4964994;28;20182;-78
2023/03/08 07:44:37;;;;;;;12.83;10.87;;;0.80;99.90;;;;;;4963324;28;20209;-78
2023/03/08 07:47:05;;;;;;;14.83;11.60;;;0.90;99.90;;;;;;4963642;28;20192;-77
2023/03/08 07:49:30;;;;;;;12.93;11.13;;;1.10;1.00;;;;;;4963130;28;20197;-77
2023/03/08 07:51:56;;;;;;;12.93;10.60;;;1.00;1.00;;;;;;4974827;28;20192;-77
2023/03/08 07:54:22;;;;;;;13.00;11.13;;;1.10;99.90;;;;;;4967022;28;20229;-79
2023/03/08 07:56:47;;;;;;;13.63;10.37;;;1.10;99.90;;;;;;4963868;28;20769;-79
2023/03/08 07:59:13;;;;;;;12.17;10.33;;;1.20;99.90;;;;;;4962205;28;20205;-78
2023/03/08 08:01:39;;;;;;;14.20;11.00;;;1.30;99.90;;;;;;4970644;28;20213;-77
2023/03/08 08:04:06;;;;;;;13.87;12.33;;;1.50;99.90;;;;;;4962376;28;20272;-78
2023/03/08 08:06:34;;;;;;;11.97;10.53;;;1.70;99.90;;;;;;4967325;28;21160;-78
2023/03/08 08:09:00;;;;;;;11.63;9.90;;;1.70;99.90;;;;;;4966895;28;20196;-80
2023/03/08 08:11:25;;;;;;;11.30;9.93;;;1.80;99.90;;;;;;4979045;28;20570;-78
2023/03/08 08:13:51;;;;;;;11.97;9.30;;;1.90;99.90;;;;;;4966087;28;20228;-79
2023/03/08 08:16:17;;;;;;;11.17;10.00;;;1.80;99.90;;;;;;4964216;28;20244;-80
2023/03/08 08:18:42;;;;;;;12.93;10.53;;;1.80;99.90;;;;;;4968425;28;20217;-80
2023/03/08 08:21:10;;;;;;;14.03;12.13;;;1.80;99.90;;;;;;4965719;28;20192;-78
2023/03/08 08:23:37;;;;;;;13.37;11.97;;;1.80;99.90;;;;;;4966641;28;20193;-79
2023/03/08 08:26:08;;;;;;;13.63;11.03;;;1.80;99.90;;;;;;4961068;28;20302;-78
2023/03/08 08:28:34;;;;;;;12.17;10.87;;;1.90;99.90;;;;;;4959984;28;20197;-80
2023/03/08 08:31:03;;;;;;;20.33;12.90;;;1.80;99.90;;;;;;4969248;28;20189;-79
2023/03/08 08:33:29;;;;;;;14.03;11.87;;;1.80;99.90;;;;;;4962119;28;20256;-78
2023/03/08 08:35:55;;;;;;;14.23;12.63;;;1.70;99.90;;;;;;4968809;28;20654;-79
2023/03/08 08:38:21;;;;;;;18.87;16.80;;;1.80;99.90;;;;;;4961781;28;20227;-79
2023/03/08 08:40:47;;;;;;;16.70;14.90;;;1.70;99.90;;;;;;4967611;28;20665;-78
2023/03/08 08:43:13;;;;;;;17.10;14.87;;;1.80;99.90;;;;;;4952199;28;20229;-79
2023/03/08 08:45:43;;;;;;;15.47;13.80;;;1.80;99.90;;;;;;4960979;28;20678;-78
2023/03/08 08:48:08;;;;;;;13.67;12.10;;;1.80;99.90;;;;;;4960976;28;20193;-81
2023/03/08 08:50:36;;;;;;;12.27;10.97;;;1.90;99.90;;;;;;4960281;28;20185;-78
2023/03/08 08:53:01;;;;;;;14.67;12.17;;;1.90;99.90;;;;;;4966407;28;20212;-78
2023/03/08 08:55:27;;;;;;;13.83;11.63;;;2.00;96.80;;;;;;4961030;28;20917;-78
2023/03/08 08:57:52;;;;;;;12.70;11.33;;;2.10;90.70;;;;;;4964052;28;20181;-78
2023/03/08 09:00:18;;;;;;;11.43;10.23;;;2.10;78.00;;;;;;4966993;28;20684;-78
2023/03/08 09:02:44;;;;;;;12.37;11.07;;;2.20;60.20;;;;;;4961401;28;20185;-79
2023/03/08 09:05:09;;;;;;;12.77;11.10;;;2.20;55.60;;;;;;4960565;28;20638;-78
2023/03/08 09:07:35;;;;;;;10.87;9.70;;;2.20;45.00;;;;;;4974938;28;20197;-78
2023/03/08 09:10:01;;;;;;;13.43;11.80;;;2.20;42.40;;;;;;4958512;28;20189;-78
2023/03/08 09:12:28;;;;;;;13.00;11.53;;;2.30;54.60;;;;;;4959543;28;20196;-78
2023/03/08 09:14:53;;;;;;;11.53;10.37;;;2.40;56.70;;;;;;4973718;28;20336;-78
2023/03/08 09:17:19;;;;;;;12.80;11.37;;;2.70;58.30;;;;;;4958990;28;20267;-81
2023/03/08 09:19:45;;;;;;;11.83;10.50;;;2.70;52.70;;;;;;4972334;28;20189;-79
2023/03/08 09:22:10;;;;;;;12.67;11.33;;;2.80;43.90;;;;;;4971117;28;20182;-79
2023/03/08 09:24:36;;;;;;;13.63;10.47;;;3.10;34.80;;;;;;4962527;28;20252;-80
2023/03/08 09:27:04;;;;;;;11.00;9.90;;;3.00;18.30;;;;;;4957794;28;20189;-79
2023/03/08 09:29:31;;;;;;;12.00;9.97;;;3.00;16.20;;;;;;4957833;28;20212;-78
2023/03/08 09:31:57;;;;;;;11.43;9.50;;;2.90;4.00;;;;;;4956884;28;20189;-80
2023/03/08 09:34:22;;;;;;;10.70;9.63;;;2.90;1.00;;;;;;4964352;28;20275;-79
2023/03/08 09:36:48;;;;;;;10.43;9.03;;;2.90;1.00;;;;;;4976392;28;20190;-80
2023/03/08 09:39:13;;;;;;;11.23;10.03;;;2.90;1.00;;;;;;4957567;28;20224;-79
2023/03/08 09:42:00;;;;;;;14.13;12.73;;;3.00;1.00;;;;;;4960783;28;20180;-80
2023/03/08 09:44:47;;;;;;;11.97;10.77;;;3.10;1.00;;;;;;4959282;28;20264;-79
2023/03/08 09:47:22;;;;;;;9.27;8.37;;;3.20;1.00;;;;;;4959412;28;21299;-79
2023/03/08 09:49:51;;;;;;;8.90;7.93;;;3.30;1.00;;;;;;4961433;28;20185;-79
2023/03/08 09:52:28;;;;;;;9.67;8.67;;;3.30;1.00;;;;;;4961706;28;20200;-79
2023/03/08 09:54:57;;;;;;;10.03;8.90;;;3.30;1.00;;;;;;4959636;28;20715;-79
2023/03/08 09:57:27;;;;;;;12.73;10.90;;;3.40;1.00;;;;;;4960415;28;20296;-79
2023/03/08 09:59:55;;;;;;;12.03;10.60;;;3.40;1.00;;;;;;4966681;28;20271;-79
2023/03/08 10:02:55;;;;;;;11.33;10.13;;;3.40;1.00;;;;;;4959647;28;20184;-78
2023/03/08 10:05:35;;;;;;;11.40;10.30;;;3.60;1.00;;;;;;4959246;28;20233;-79
2023/03/08 10:08:11;;;;;;;11.03;10.03;;;3.80;1.00;;;;;;4960395;28;20198;-79
2023/03/08 10:10:49;;;;;;;11.50;10.40;;;4.00;1.00;;;;;;4959821;28;20210;-79
2023/03/08 10:13:35;;;;;;;11.77;10.57;;;4.00;1.00;;;;;;4957899;28;20189;-79
2023/03/08 10:16:04;;;;;;;10.97;9.70;;;4.00;1.00;;;;;;4956005;28;20235;-79
2023/03/08 10:18:35;;;;;;;11.83;10.63;;;4.00;1.00;;;;;;4958914;28;20284;-79
2023/03/08 10:21:02;;;;;;;12.27;11.07;;;4.00;1.00;;;;;;4957899;28;20188;-79
2023/03/08 10:23:33;;;;;;;30.30;24.70;;;4.10;1.00;;;;;;4957884;28;20195;-79
2023/03/08 10:26:00;;;;;;;15.23;13.63;;;4.20;1.00;;;;;;4958874;28;20349;-79
2023/03/08 10:28:26;;;;;;;32.37;25.83;;;4.10;1.00;;;;;;4975714;28;20189;-79
2023/03/08 10:30:58;;;;;;;15.20;13.60;;;4.10;1.00;;;;;;4956165;28;20185;-80
2023/03/08 10:33:30;;;;;;;14.40;12.90;;;4.10;1.00;;;;;;4973803;28;20611;-79
2023/03/08 10:36:11;;;;;;;24.40;21.83;;;4.20;1.00;;;;;;4954942;28;20205;-79
2023/03/08 10:38:37;;;;;;;21.53;19.17;;;4.10;1.00;;;;;;4958010;28;20599;-79
2023/03/08 10:41:14;;;;;;;28.00;24.97;;;4.00;1.00;;;;;;4955282;28;20205;-79
2023/03/08 10:43:48;;;;;;;47.53;36.87;;;3.90;1.00;;;;;;4956447;28;20192;-80
2023/03/08 10:46:16;;;;;;;22.83;18.07;;;3.80;1.00;;;;;;4956883;28;20190;-79
2023/03/08 10:48:42;;;;;;;40.10;27.87;;;4.20;1.00;;;;;;4960907;28;21228;-80
2023/03/08 10:51:26;;;;;;;18.80;13.70;;;3.80;1.00;;;;;;4957267;28;20225;-79
2023/03/08 10:53:56;;;;;;;23.60;18.40;;;3.90;1.00;;;;;;4958339;28;20260;-79
2023/03/08 10:56:25;;;;;;;23.93;19.90;;;4.00;1.00;;;;;;4960926;28;20908;-79
2023/03/08 10:58:54;;;;;;;23.77;19.53;;;3.80;1.00;;;;;;4959152;28;20193;-79
2023/03/08 11:01:25;;;;;;;35.73;28.00;;;3.80;1.00;;;;;;4961033;28;20189;-79
2023/03/08 11:04:05;;;;;;;32.00;24.57;;;3.80;1.00;;;;;;4956795;28;20185;-79
2023/03/08 11:06:34;;;;;;;63.77;52.57;;;3.70;1.00;;;;;;4958230;28;20276;-78
2023/03/08 11:09:03;;;;;;;28.10;23.17;;;3.80;1.00;;;;;;4958605;28;20284;-80
2023/03/08 11:11:39;;;;;;;28.97;22.67;;;3.90;1.00;;;;;;4955154;28;20209;-79
2023/03/08 11:14:09;;;;;;;29.57;23.37;;;3.80;1.00;;;;;;4956624;28;20312;-80
2023/03/08 11:16:45;;;;;;;19.63;16.27;;;3.90;1.00;;;;;;4956716;28;20223;-80
2023/03/08 11:19:58;;;;;;;11.83;10.60;;;3.90;1.00;;;;;;4959318;28;20686;-79
2023/03/08 11:22:35;;;;;;;35.00;27.43;;;3.80;1.00;;;;;;4951558;28;20192;-79
2023/03/08 11:25:21;;;;;;;16.40;13.03;;;3.60;1.00;;;;;;4956779;28;20209;-79
2023/03/08 11:28:10;;;;;;;21.93;17.40;;;3.60;1.00;;;;;;4959704;28;20649;-80
2023/03/08 11:30:50;;;;;;;22.40;16.30;;;3.70;1.00;;;;;;4958526;28;20193;-79
2023/03/08 11:33:37;;;;;;;35.77;24.33;;;3.90;1.00;;;;;;4957735;28;20709;-80
2023/03/08 11:36:24;;;;;;;25.47;16.40;;;3.90;1.00;;;;;;4957523;28;20279;-79
2023/03/08 11:39:21;;;;;;;25.17;17.43;;;3.90;1.00;;;;;;4958171;28;20201;-79
2023/03/08 11:42:03;;;;;;;19.70;13.73;;;3.80;1.00;;;;;;4957001;28;20256;-80
2023/03/08 11:44:53;;;;;;;25.80;17.40;;;3.80;1.00;;;;;;4957205;28;20228;-79
2023/03/08 11:47:43;;;;;;;35.93;22.23;;;3.70;1.00;;;;;;4957336;28;20204;-79
2023/03/08 11:50:22;;;;;;;34.63;21.50;;;3.60;1.00;;;;;;4972999;28;20186;-79
2023/03/08 11:52:58;;;;;;;19.10;12.83;;;3.60;1.00;;;;;;4956426;28;20187;-79
2023/03/08 11:55:48;;;;;;;13.33;10.90;;;3.70;1.00;;;;;;4971945;28;20212;-79
2023/03/08 11:58:21;;;;;;;19.17;15.03;;;3.60;1.00;;;;;;4958098;28;20178;-80
2023/03/08 12:00:49;;;;;;;35.13;23.70;;;3.60;1.00;;;;;;4956526;28;20214;-79
2023/03/08 12:03:23;;;;;;;26.50;17.20;;;3.70;1.00;;;;;;4968560;28;20185;-80
2023/03/08 12:05:59;;;;;;;12.83;9.27;;;3.80;1.00;;;;;;4970020;28;20684;-79
2023/03/08 12:08:30;;;;;;;12.77;9.30;;;3.80;1.00;;;;;;4974077;28;20623;-80
2023/03/08 12:11:02;;;;;;;74.77;55.13;;;3.80;1.00;;;;;;4958087;28;20549;-79
2023/03/08 12:13:32;;;;;;;64.83;42.93;;;3.60;1.00;;;;;;4951308;28;20193;-79
2023/03/08 12:16:18;;;;;;;59.93;42.87;;;3.50;1.00;;;;;;4951484;28;20201;-79
2023/03/08 12:18:52;;;;;;;17.80;16.03;;;3.50;1.00;;;;;;4950316;28;20268;-79
2023/03/08 12:21:50;;;;;;;12.13;10.93;;;3.40;1.00;;;;;;4953240;28;20209;-79
2023/03/08 12:24:26;;;;;;;7.57;6.97;;;3.20;1.00;;;;;;4961056;28;20217;-79
2023/03/08 12:27:17;;;;;;;12.27;11.17;;;3.40;1.00;;;;;;4973461;28;20216;-79
2023/03/08 12:29:53;;;;;;;9.90;8.87;;;3.30;1.00;;;;;;4959983;28;20191;-80
2023/03/08 12:32:19;;;;;;;6.30;5.70;;;3.10;1.00;;;;;;4963713;28;20279;-80
2023/03/08 12:34:46;;;;;;;11.03;9.67;;;3.20;1.00;;;;;;4960041;28;20309;-79
2023/03/08 12:37:20;;;;;;;7.57;6.77;;;3.10;1.00;;;;;;4952757;28;21062;-79
2023/03/08 12:40:04;;;;;;;9.57;8.57;;;3.00;1.00;;;;;;4957282;28;20189;-79
2023/03/08 12:42:39;;;;;;;7.67;5.77;;;2.90;1.00;;;;;;4964631;28;20304;-79
2023/03/08 12:45:29;;;;;;;8.37;7.57;;;2.90;1.00;;;;;;4963600;28;20570;-79
2023/03/08 12:48:04;;;;;;;6.67;5.97;;;2.90;11.10;;;;;;4948725;28;20250;-79
2023/03/08 12:50:52;;;;;;;7.10;6.40;;;2.80;10.50;;;;;;4964710;28;20215;-79
2023/03/08 12:53:50;;;;;;;9.07;8.27;;;2.80;14.50;;;;;;4966107;28;20371;-79
2023/03/08 12:56:26;;;;;;;8.20;6.87;;;2.80;20.90;;;;;;4959241;28;20216;-79
2023/03/08 12:58:55;;;;;;;5.83;5.00;;;2.70;37.70;;;;;;4952598;28;20201;-79